Minneapolis, Minnesota
Traffic Map
Current Weather Conditions
Minneapolis, Minnesota
Overcast
Overcast
42°
Feels Like: 35°
Wind Chill: 35° Ceiling: 900
Heat Index: 42° Visibility: 10mi
Dew Point: 38° Wind: 14mph
Humidity: 85% Direction: 90° (E)
Pressure: 30.08in Gusts: 0mph
Raw Report DataKMSP 301153Z 09012KT 10SM OVC009 06/03 A3008 RMK AO2 SLP189 70007 T00560033 10067 20056 58009
Traffic Incident Summary
Active as of:
Severity:
Category:
InformationThere was an issue retrieving the traffic information for this location. Please try a different location or try again shortly.
Advertisements
Track Severe Weather on mobile